Time;durP1;ratioP1;P1;durP2;ratioP2;P2;SDS_P1;SDS_P2;PMS_P1;PMS_P2;Temp;Humidity;BMP_temperature;BMP_pressure;BME280_temperature;BME280_humidity;BME280_pressure;Samples;Min_cycle;Max_cycle;Signal;HPM_P1;HPM_P2
2021/11/22 00:01:20;;;;;;;72.70;43.33;;;;;;;;;;5035210;28;20017;-77
2021/11/22 00:03:46;;;;;;;72.28;41.42;;;;;;;;;;5035153;28;20032;-79
2021/11/22 00:06:12;;;;;;;63.50;39.25;;;;;;;;;;5034885;28;20426;-79
2021/11/22 00:08:38;;;;;;;47.45;30.92;;;;;;;;;;5035263;28;20100;-78
2021/11/22 00:11:05;;;;;;;42.63;28.35;;;;;;;;;;5034671;28;20038;-79
2021/11/22 00:13:31;;;;;;;39.92;27.98;;;;;;;;;;5034941;28;20033;-77
2021/11/22 00:15:57;;;;;;;41.05;27.27;;;;;;;;;;5034777;28;20041;-77
2021/11/22 00:18:24;;;;;;;51.58;31.67;;;;;;;;;;5034974;28;20033;-79
2021/11/22 00:20:50;;;;;;;45.58;29.95;;;;;;;;;;5034880;28;20108;-78
2021/11/22 00:23:16;;;;;;;42.20;29.52;;;;;;;;;;5033431;28;20029;-78
2021/11/22 00:25:43;;;;;;;39.30;25.88;;;;;;;;;;5034781;28;20061;-79
2021/11/22 00:28:09;;;;;;;32.92;22.42;;;;;;;;;;5034531;28;20349;-77
2021/11/22 00:30:35;;;;;;;34.65;23.67;;;;;;;;;;5032437;28;20041;-79
2021/11/22 00:33:02;;;;;;;27.52;19.73;;;;;;;;;;5034489;28;20029;-77
2021/11/22 00:35:35;;;;;;;26.92;18.77;;;;;;;;;;5034830;28;20032;-77
2021/11/22 00:38:03;;;;;;;27.67;18.38;;;;;;;;;;5033219;28;20040;-79
2021/11/22 00:40:30;;;;;;;25.48;19.05;;;;;;;;;;5034337;28;20046;-79
2021/11/22 00:42:56;;;;;;;25.95;18.08;;;;;;;;;;5034975;28;20021;-77
2021/11/22 00:45:22;;;;;;;25.13;16.45;;;;;;;;;;5034930;28;20021;-78
2021/11/22 00:47:48;;;;;;;22.88;16.75;;;;;;;;;;5034515;28;20091;-80
2021/11/22 00:50:15;;;;;;;23.63;15.90;;;;;;;;;;5034020;28;20036;-80
2021/11/22 00:52:43;;;;;;;26.08;19.05;;;;;;;;;;5034348;28;20021;-80
2021/11/22 00:55:14;;;;;;;55.00;34.03;;;;;;;;;;5033877;28;20052;-79
2021/11/22 00:57:40;;;;;;;50.05;35.25;;;;;;;;;;5034344;28;20036;-79
2021/11/22 01:00:08;;;;;;;32.95;24.17;;;;;;;;;;5034032;28;20053;-80
2021/11/22 01:02:35;;;;;;;32.95;23.80;;;;;;;;;;5034260;28;20079;-78
2021/11/22 01:05:01;;;;;;;31.83;20.52;;;;;;;;;;5033853;28;20108;-79
2021/11/22 01:07:27;;;;;;;39.05;26.75;;;;;;;;;;5034141;28;20026;-78
2021/11/22 01:09:53;;;;;;;40.42;28.35;;;;;;;;;;5033853;28;20032;-80
2021/11/22 01:12:19;;;;;;;48.58;32.00;;;;;;;;;;5033980;28;20029;-78
2021/11/22 01:14:46;;;;;;;73.35;45.53;;;;;;;;;;5034071;28;20022;-79
2021/11/22 01:17:14;;;;;;;67.25;42.97;;;;;;;;;;5033707;28;20139;-80
2021/11/22 01:19:40;;;;;;;66.95;43.58;;;;;;;;;;5032587;28;20044;-78
2021/11/22 01:22:06;;;;;;;51.15;34.38;;;;;;;;;;5033529;28;20109;-79
2021/11/22 01:24:32;;;;;;;42.85;28.50;;;;;;;;;;5033951;28;20061;-79
2021/11/22 01:26:58;;;;;;;55.92;35.70;;;;;;;;;;5033639;28;20528;-79
2021/11/22 01:29:25;;;;;;;48.63;30.95;;;;;;;;;;5033648;28;20064;-80
2021/11/22 01:31:51;;;;;;;33.83;22.27;;;;;;;;;;5034575;28;20041;-77
2021/11/22 01:34:17;;;;;;;42.67;27.85;;;;;;;;;;5032278;28;20065;-78
2021/11/22 01:36:43;;;;;;;48.20;31.17;;;;;;;;;;5033500;28;20021;-79
2021/11/22 01:39:09;;;;;;;41.75;27.92;;;;;;;;;;5032904;28;20053;-78
2021/11/22 01:41:35;;;;;;;42.58;26.20;;;;;;;;;;5033329;28;20064;-78
2021/11/22 01:44:01;;;;;;;36.42;24.33;;;;;;;;;;5033375;28;20088;-78
2021/11/22 01:46:30;;;;;;;43.00;29.17;;;;;;;;;;5033320;28;20083;-77
2021/11/22 01:48:57;;;;;;;42.45;28.05;;;;;;;;;;5033169;28;20380;-79
2021/11/22 01:51:23;;;;;;;45.35;29.05;;;;;;;;;;5032978;28;20040;-77
2021/11/22 01:53:49;;;;;;;43.03;28.42;;;;;;;;;;5033144;28;20025;-79
2021/11/22 01:56:15;;;;;;;36.63;25.48;;;;;;;;;;5033054;28;20029;-78
2021/11/22 01:58:41;;;;;;;31.77;23.25;;;;;;;;;;5033293;28;20551;-77
2021/11/22 02:01:07;;;;;;;36.03;26.05;;;;;;;;;;5033077;28;20033;-79
2021/11/22 02:03:34;;;;;;;34.97;23.83;;;;;;;;;;5032876;28;20428;-80
2021/11/22 02:06:00;;;;;;;39.22;25.63;;;;;;;;;;5033033;28;20083;-79
2021/11/22 02:08:26;;;;;;;36.83;23.90;;;;;;;;;;5032735;28;20461;-80
2021/11/22 02:10:52;;;;;;;30.13;22.25;;;;;;;;;;5031756;28;20068;-77
2021/11/22 02:13:19;;;;;;;31.77;21.83;;;;;;;;;;5032632;28;20461;-80
2021/11/22 02:15:46;;;;;;;37.60;25.45;;;;;;;;;;5032973;28;20025;-79
2021/11/22 02:18:12;;;;;;;36.40;24.80;;;;;;;;;;5032617;28;20025;-80
2021/11/22 02:20:38;;;;;;;27.67;18.98;;;;;;;;;;5032757;28;20033;-79
2021/11/22 02:23:10;;;;;;;28.05;20.05;;;;;;;;;;5032682;28;20083;-79
2021/11/22 02:25:37;;;;;;;28.25;20.23;;;;;;;;;;5032813;28;20087;-78
2021/11/22 02:28:04;;;;;;;26.85;19.02;;;;;;;;;;5032630;28;20100;-78
2021/11/22 02:30:31;;;;;;;29.25;19.00;;;;;;;;;;5032383;28;20030;-79
2021/11/22 02:32:59;;;;;;;28.75;20.48;;;;;;;;;;5031230;28;20396;-79
2021/11/22 02:35:25;;;;;;;24.75;18.60;;;;;;;;;;5030977;28;20151;-80
2021/11/22 02:37:51;;;;;;;27.80;20.05;;;;;;;;;;5032570;28;20044;-78
2021/11/22 02:40:17;;;;;;;31.67;21.27;;;;;;;;;;5030841;28;20054;-79
2021/11/22 02:42:45;;;;;;;29.75;21.75;;;;;;;;;;5032785;28;20025;-77
2021/11/22 02:45:12;;;;;;;35.28;22.75;;;;;;;;;;5033199;28;20521;-77
2021/11/22 02:47:38;;;;;;;32.17;21.52;;;;;;;;;;5032439;28;20021;-78
2021/11/22 02:50:05;;;;;;;28.50;19.88;;;;;;;;;;5032170;28;20477;-80
2021/11/22 02:52:32;;;;;;;29.92;20.92;;;;;;;;;;5032183;28;20022;-80
2021/11/22 02:54:58;;;;;;;35.50;24.92;;;;;;;;;;5031979;28;20025;-78
2021/11/22 02:57:24;;;;;;;35.80;24.65;;;;;;;;;;5031934;28;20025;-78
2021/11/22 02:59:50;;;;;;;37.40;24.05;;;;;;;;;;5032264;28;20407;-77
2021/11/22 03:02:16;;;;;;;29.63;20.83;;;;;;;;;;5032174;28;20025;-79
2021/11/22 03:04:44;;;;;;;34.17;22.85;;;;;;;;;;5032100;28;20056;-77
2021/11/22 03:07:11;;;;;;;31.15;23.85;;;;;;;;;;5032266;28;20029;-78
2021/11/22 03:09:37;;;;;;;32.33;23.60;;;;;;;;;;5030779;28;20029;-78
2021/11/22 03:12:05;;;;;;;34.75;24.55;;;;;;;;;;5030902;28;20042;-79
2021/11/22 03:14:32;;;;;;;32.63;23.70;;;;;;;;;;5031655;28;20034;-80
2021/11/22 03:16:58;;;;;;;27.17;19.60;;;;;;;;;;5030849;28;20033;-78
2021/11/22 03:19:24;;;;;;;31.27;23.40;;;;;;;;;;5031909;28;20025;-79
2021/11/22 03:21:51;;;;;;;47.05;28.58;;;;;;;;;;5030906;28;20379;-80
2021/11/22 03:24:17;;;;;;;43.28;29.38;;;;;;;;;;5031766;28;20025;-78
2021/11/22 03:26:43;;;;;;;38.42;25.55;;;;;;;;;;5031939;28;20049;-78
2021/11/22 03:29:10;;;;;;;29.98;22.20;;;;;;;;;;5031912;28;20033;-79
2021/11/22 03:31:37;;;;;;;27.60;21.88;;;;;;;;;;5030385;28;20439;-79
2021/11/22 03:34:05;;;;;;;30.15;22.13;;;;;;;;;;5033161;28;20467;-80
2021/11/22 03:36:32;;;;;;;31.08;22.30;;;;;;;;;;5030226;28;20461;-77
2021/11/22 03:39:00;;;;;;;32.15;21.92;;;;;;;;;;5030307;28;20045;-80
2021/11/22 03:41:27;;;;;;;32.35;23.48;;;;;;;;;;5031485;28;20025;-79
2021/11/22 03:46:39;;;;;;;31.20;21.80;;;;;;;;;;5031962;28;20459;-81
2021/11/22 03:49:06;;;;;;;33.08;22.60;;;;;;;;;;5031631;28;20021;-79
2021/11/22 03:51:32;;;;;;;32.38;21.75;;;;;;;;;;5031607;28;20052;-79
2021/11/22 03:53:58;;;;;;;30.42;20.77;;;;;;;;;;5031640;28;20029;-79
2021/11/22 03:56:24;;;;;;;30.90;20.90;;;;;;;;;;5030291;28;20026;-79
2021/11/22 03:58:50;;;;;;;31.10;21.15;;;;;;;;;;5031745;28;20440;-79
2021/11/22 04:01:17;;;;;;;34.10;22.92;;;;;;;;;;5031518;28;20025;-79
2021/11/22 04:03:44;;;;;;;32.08;22.17;;;;;;;;;;5031724;28;20054;-80
2021/11/22 04:06:10;;;;;;;31.92;22.33;;;;;;;;;;5033288;28;20139;-78
2021/11/22 04:08:36;;;;;;;32.25;22.40;;;;;;;;;;5034928;28;20128;-78
2021/11/22 04:11:03;;;;;;;36.60;25.05;;;;;;;;;;5035204;28;20033;-81
2021/11/22 04:13:29;;;;;;;38.72;25.83;;;;;;;;;;5034788;28;20531;-80
2021/11/22 04:15:55;;;;;;;36.15;25.58;;;;;;;;;;5035144;28;20017;-78
2021/11/22 04:18:21;;;;;;;38.17;24.67;;;;;;;;;;5033766;28;20164;-81
2021/11/22 04:20:47;;;;;;;31.38;23.05;;;;;;;;;;5035001;28;20026;-79
2021/11/22 04:23:13;;;;;;;31.17;22.10;;;;;;;;;;5035035;28;20061;-80
2021/11/22 04:25:39;;;;;;;38.03;29.50;;;;;;;;;;5034863;28;20029;-78
2021/11/22 04:28:06;;;;;;;133.50;74.75;;;;;;;;;;5035205;28;20099;-80
2021/11/22 04:30:33;;;;;;;127.07;75.70;;;;;;;;;;5034398;28;20041;-78
2021/11/22 04:32:59;;;;;;;98.03;66.30;;;;;;;;;;5035000;28;20041;-79
2021/11/22 04:35:26;;;;;;;43.78;27.63;;;;;;;;;;5034589;28;20025;-79
2021/11/22 04:37:52;;;;;;;39.45;26.85;;;;;;;;;;5034762;28;20025;-79
2021/11/22 04:40:19;;;;;;;41.47;27.70;;;;;;;;;;5034269;28;20497;-81
2021/11/22 04:42:47;;;;;;;71.85;41.83;;;;;;;;;;5034877;28;20040;-80
2021/11/22 04:45:14;;;;;;;192.35;136.00;;;;;;;;;;5034734;28;20041;-79
2021/11/22 04:47:40;;;;;;;205.45;128.48;;;;;;;;;;5035569;28;20029;-78
2021/11/22 04:50:06;;;;;;;232.20;145.90;;;;;;;;;;5034465;28;20029;-77
2021/11/22 04:52:32;;;;;;;333.00;233.05;;;;;;;;;;5034136;28;20041;-80
2021/11/22 04:54:58;;;;;;;108.95;75.13;;;;;;;;;;5034387;28;20036;-78
2021/11/22 04:57:24;;;;;;;57.50;35.15;;;;;;;;;;5032765;28;20029;-79
2021/11/22 04:59:51;;;;;;;133.07;81.80;;;;;;;;;;5033621;28;20506;-78
2021/11/22 05:02:17;;;;;;;106.93;71.57;;;;;;;;;;5034292;28;20052;-78
2021/11/22 05:04:43;;;;;;;74.72;50.30;;;;;;;;;;5033745;28;20071;-79
2021/11/22 05:07:09;;;;;;;53.42;37.03;;;;;;;;;;5033011;28;20057;-80
2021/11/22 05:09:35;;;;;;;39.35;25.95;;;;;;;;;;5033894;28;20595;-80
2021/11/22 05:12:02;;;;;;;46.60;29.30;;;;;;;;;;5034187;28;20065;-77
2021/11/22 05:14:28;;;;;;;40.47;25.70;;;;;;;;;;5033997;28;20105;-77
2021/11/22 05:16:54;;;;;;;32.38;22.52;;;;;;;;;;5033684;28;20025;-80
2021/11/22 05:19:21;;;;;;;35.70;23.80;;;;;;;;;;5034281;28;20477;-81
2021/11/22 05:21:47;;;;;;;38.45;24.55;;;;;;;;;;5033964;28;20059;-79
2021/11/22 05:24:13;;;;;;;31.73;21.65;;;;;;;;;;5033920;28;20033;-82
2021/11/22 05:26:39;;;;;;;30.65;21.33;;;;;;;;;;5033840;28;20401;-79
2021/11/22 05:29:08;;;;;;;33.55;20.58;;;;;;;;;;5034276;28;20029;-79
2021/11/22 05:31:35;;;;;;;33.15;23.23;;;;;;;;;;5033763;28;20477;-81
2021/11/22 05:34:01;;;;;;;34.13;23.42;;;;;;;;;;5032782;28;20532;-79
2021/11/22 05:36:28;;;;;;;32.85;22.48;;;;;;;;;;5032585;28;20048;-78
2021/11/22 05:38:54;;;;;;;32.25;22.00;;;;;;;;;;5033019;28;20037;-81
2021/11/22 05:41:20;;;;;;;42.53;27.77;;;;;;;;;;5032444;28;20091;-81
2021/11/22 05:43:46;;;;;;;46.22;30.27;;;;;;;;;;5032029;28;20041;-75
2021/11/22 05:46:12;;;;;;;59.00;38.58;;;;;;;;;;5033347;28;20087;-76
2021/11/22 05:48:39;;;;;;;92.45;61.22;;;;;;;;;;5033057;28;20417;-76
2021/11/22 05:51:11;;;;;;;102.63;66.35;;;;;;;;;;5034646;28;20037;-76
2021/11/22 05:53:38;;;;;;;98.03;62.85;;;;;;;;;;5032333;28;20033;-76
2021/11/22 05:56:05;;;;;;;84.88;55.85;;;;;;;;;;5031746;28;20078;-77
2021/11/22 05:58:31;;;;;;;92.90;61.30;;;;;;;;;;5032794;28;20492;-77
2021/11/22 06:00:58;;;;;;;80.40;52.60;;;;;;;;;;5032837;28;20029;-77
2021/11/22 06:03:25;;;;;;;77.45;53.72;;;;;;;;;;5032780;28;20033;-76
2021/11/22 06:05:51;;;;;;;81.22;53.88;;;;;;;;;;5032568;28;20049;-77
2021/11/22 06:08:17;;;;;;;65.70;46.17;;;;;;;;;;5032747;28;20030;-76
2021/11/22 06:10:44;;;;;;;80.32;54.10;;;;;;;;;;5032243;28;20029;-76
2021/11/22 06:13:11;;;;;;;59.53;42.00;;;;;;;;;;5032738;28;20036;-76
2021/11/22 06:15:37;;;;;;;48.63;35.97;;;;;;;;;;5032333;28;20665;-76
2021/11/22 06:18:03;;;;;;;44.55;32.42;;;;;;;;;;5032389;28;20022;-76
2021/11/22 06:20:29;;;;;;;44.08;33.80;;;;;;;;;;5032183;28;20468;-76
2021/11/22 06:22:56;;;;;;;66.15;47.05;;;;;;;;;;5032060;28;20053;-76
2021/11/22 06:25:22;;;;;;;54.50;38.67;;;;;;;;;;5032027;28;20500;-75
2021/11/22 06:27:48;;;;;;;54.40;36.92;;;;;;;;;;5032083;28;20447;-79
2021/11/22 06:30:14;;;;;;;45.58;33.42;;;;;;;;;;5032345;28;20029;-81
2021/11/22 06:32:40;;;;;;;39.22;27.60;;;;;;;;;;5031863;28;20087;-79
2021/11/22 06:35:06;;;;;;;38.45;26.65;;;;;;;;;;5031841;28;20056;-79
2021/11/22 06:37:34;;;;;;;40.40;27.55;;;;;;;;;;5030800;28;20041;-82
2021/11/22 06:40:01;;;;;;;46.15;29.33;;;;;;;;;;5028815;28;20081;-80
2021/11/22 06:42:27;;;;;;;40.53;27.67;;;;;;;;;;5029005;28;20029;-78
2021/11/22 06:44:53;;;;;;;88.00;58.17;;;;;;;;;;5030188;28;20449;-79
2021/11/22 06:47:19;;;;;;;114.75;76.05;;;;;;;;;;5029765;28;20389;-81
2021/11/22 06:49:45;;;;;;;219.93;139.80;;;;;;;;;;5029225;28;20026;-79
2021/11/22 06:52:13;;;;;;;237.23;148.40;;;;;;;;;;5028738;28;20033;-79
2021/11/22 06:54:39;;;;;;;182.60;116.65;;;;;;;;;;5030411;28;20365;-80
2021/11/22 06:57:06;;;;;;;172.10;112.15;;;;;;;;;;5029035;28;20048;-79
2021/11/22 06:59:34;;;;;;;147.77;99.15;;;;;;;;;;5027700;28;20143;-79
2021/11/22 07:02:00;;;;;;;155.50;105.80;;;;;;;;;;5030151;28;20116;-80
2021/11/22 07:04:27;;;;;;;142.13;97.65;;;;;;;;;;5030736;28;20113;-78
2021/11/22 07:06:53;;;;;;;143.07;94.75;;;;;;;;;;5031164;28;20175;-78
2021/11/22 07:09:19;;;;;;;162.02;103.93;;;;;;;;;;5264973;23;20047;-73
2021/11/22 07:11:48;;;;;;;210.63;133.63;;;;;;;;;;5010599;28;20539;-74
2021/11/22 07:14:14;;;;;;;132.63;89.53;;;;;;;;;;5028604;28;20034;-74
2021/11/22 07:16:40;;;;;;;121.95;84.00;;;;;;;;;;5022740;28;20072;-75
2021/11/22 07:19:06;;;;;;;128.80;85.15;;;;;;;;;;5010643;28;20053;-75
2021/11/22 07:21:32;;;;;;;118.18;80.72;;;;;;;;;;5010036;28;20033;-75
2021/11/22 07:23:59;;;;;;;121.20;84.68;;;;;;;;;;5010774;28;20400;-77
2021/11/22 07:26:25;;;;;;;118.90;83.63;;;;;;;;;;5010891;28;20125;-74
2021/11/22 07:28:52;;;;;;;136.30;93.60;;;;;;;;;;5011034;28;20025;-75
2021/11/22 07:31:18;;;;;;;91.85;64.40;;;;;;;;;;5009646;28;20042;-74
2021/11/22 07:33:44;;;;;;;80.50;53.50;;;;;;;;;;5010573;28;20038;-75
2021/11/22 07:36:10;;;;;;;102.85;69.45;;;;;;;;;;5019365;28;20029;-75
2021/11/22 07:38:36;;;;;;;96.05;68.18;;;;;;;;;;5030808;28;20396;-76
2021/11/22 07:41:03;;;;;;;92.20;64.10;;;;;;;;;;5032979;28;20179;-78
2021/11/22 07:43:29;;;;;;;94.28;60.97;;;;;;;;;;5034024;28;20037;-76
2021/11/22 07:45:55;;;;;;;96.80;61.83;;;;;;;;;;5034710;28;20443;-77
2021/11/22 07:48:21;;;;;;;100.00;67.72;;;;;;;;;;5033933;28;20042;-77
2021/11/22 07:50:51;;;;;;;89.30;57.13;;;;;;;;;;5034299;28;20087;-77
2021/11/22 07:53:17;;;;;;;73.03;46.55;;;;;;;;;;5032940;28;20037;-77
2021/11/22 07:55:45;;;;;;;73.05;50.83;;;;;;;;;;5034013;28;20037;-75
2021/11/22 07:58:11;;;;;;;68.82;47.20;;;;;;;;;;5025080;28;20036;-76
2021/11/22 08:00:37;;;;;;;69.97;48.58;;;;;;;;;;5032632;28;20025;-76
2021/11/22 08:03:04;;;;;;;66.82;46.63;;;;;;;;;;5033844;28;20029;-75
2021/11/22 08:05:32;;;;;;;68.80;48.03;;;;;;;;;;5033748;28;20029;-76
2021/11/22 08:07:58;;;;;;;66.82;45.53;;;;;;;;;;5034170;28;20057;-76
2021/11/22 08:10:27;;;;;;;72.57;49.75;;;;;;;;;;5032881;28;20487;-76
2021/11/22 08:12:56;;;;;;;81.95;54.75;;;;;;;;;;5034143;28;20163;-77
2021/11/22 08:15:23;;;;;;;78.53;55.85;;;;;;;;;;5033354;28;20037;-75
2021/11/22 08:17:50;;;;;;;76.53;52.00;;;;;;;;;;5034035;28;20035;-76
2021/11/22 08:20:17;;;;;;;71.78;50.25;;;;;;;;;;5033470;28;20491;-75
2021/11/22 08:22:45;;;;;;;64.28;43.60;;;;;;;;;;5034008;28;20124;-75
2021/11/22 08:25:12;;;;;;;69.30;45.22;;;;;;;;;;5029948;28;20079;-76
2021/11/22 08:27:39;;;;;;;96.80;57.50;;;;;;;;;;5033596;28;20064;-75
2021/11/22 08:30:07;;;;;;;94.03;57.30;;;;;;;;;;5033352;28;20029;-75
2021/11/22 08:32:34;;;;;;;84.85;56.83;;;;;;;;;;5019488;28;20037;-76
2021/11/22 08:35:01;;;;;;;79.50;52.90;;;;;;;;;;5014120;28;20029;-77
2021/11/22 08:37:27;;;;;;;58.38;41.53;;;;;;;;;;5013902;28;20040;-76
2021/11/22 08:39:53;;;;;;;44.60;33.70;;;;;;;;;;5012600;28;20034;-75
2021/11/22 08:42:19;;;;;;;47.42;32.67;;;;;;;;;;5011954;28;20397;-76
2021/11/22 08:44:46;;;;;;;53.50;35.83;;;;;;;;;;5013740;28;20080;-75
2021/11/22 08:47:13;;;;;;;70.95;50.88;;;;;;;;;;5013689;28;20026;-76
2021/11/22 08:49:42;;;;;;;62.88;46.25;;;;;;;;;;5013364;28;20037;-76
2021/11/22 08:52:12;;;;;;;61.35;44.83;;;;;;;;;;5012487;28;20037;-77
2021/11/22 08:54:38;;;;;;;48.08;36.33;;;;;;;;;;5013214;28;20056;-78
2021/11/22 08:57:07;;;;;;;45.47;33.08;;;;;;;;;;5013149;28;20026;-77
2021/11/22 08:59:33;;;;;;;40.85;30.17;;;;;;;;;;5012825;28;20022;-75
2021/11/22 09:02:00;;;;;;;38.55;28.17;;;;;;;;;;5011647;28;20022;-76
2021/11/22 09:04:27;;;;;;;44.83;29.70;;;;;;;;;;5013036;28;20034;-76
2021/11/22 09:06:53;;;;;;;38.25;28.15;;;;;;;;;;5013208;28;20109;-76
2021/11/22 09:09:19;;;;;;;43.03;30.00;;;;;;;;;;5012843;28;20506;-76
2021/11/22 09:11:46;;;;;;;40.35;30.98;;;;;;;;;;5012477;28;20042;-77
2021/11/22 09:14:13;;;;;;;68.82;49.15;;;;;;;;;;5012368;28;20029;-75
2021/11/22 09:16:39;;;;;;;56.30;41.10;;;;;;;;;;5012753;28;20037;-75
2021/11/22 09:19:05;;;;;;;52.67;41.95;;;;;;;;;;5013284;28;20551;-76
2021/11/22 09:21:32;;;;;;;61.42;48.33;;;;;;;;;;5022755;28;20101;-78
2021/11/22 09:23:59;;;;;;;60.88;46.38;;;;;;;;;;5012645;28;20109;-77
2021/11/22 09:26:25;;;;;;;58.95;44.70;;;;;;;;;;5012886;28;20030;-78
2021/11/22 09:28:51;;;;;;;62.08;46.17;;;;;;;;;;5022969;28;20040;-79
2021/11/22 09:31:18;;;;;;;62.80;47.40;;;;;;;;;;5021934;28;20049;-81
2021/11/22 09:33:45;;;;;;;60.03;43.70;;;;;;;;;;5032521;28;20029;-77
2021/11/22 09:36:12;;;;;;;54.17;41.05;;;;;;;;;;5032869;28;20490;-78
2021/11/22 09:38:38;;;;;;;55.72;41.38;;;;;;;;;;5030484;28;20476;-78
2021/11/22 09:41:04;;;;;;;49.42;36.90;;;;;;;;;;5032224;28;20021;-76
2021/11/22 09:43:30;;;;;;;53.97;40.85;;;;;;;;;;5013571;28;20092;-77
2021/11/22 09:45:57;;;;;;;55.45;41.67;;;;;;;;;;5012308;28;20034;-79
2021/11/22 09:48:23;;;;;;;55.50;42.40;;;;;;;;;;5012491;28;20033;-76
2021/11/22 09:50:49;;;;;;;58.67;43.95;;;;;;;;;;5012222;28;20037;-76
2021/11/22 09:53:16;;;;;;;52.42;40.70;;;;;;;;;;5012167;28;20037;-74
2021/11/22 09:55:42;;;;;;;66.47;48.65;;;;;;;;;;5012313;28;20041;-75
2021/11/22 09:58:10;;;;;;;79.38;59.83;;;;;;;;;;5011867;28;20377;-76
2021/11/22 10:00:44;;;;;;;91.20;65.80;;;;;;;;;;5011889;28;20030;-79
2021/11/22 10:03:12;;;;;;;64.28;46.25;;;;;;;;;;5011976;28;20049;-75
2021/11/22 10:05:40;;;;;;;76.85;53.90;;;;;;;;;;5011694;28;20393;-78
2021/11/22 10:08:07;;;;;;;80.25;57.33;;;;;;;;;;5010377;28;20034;-76
2021/11/22 10:10:35;;;;;;;84.45;61.13;;;;;;;;;;5011791;28;20140;-75
2021/11/22 10:13:03;;;;;;;68.15;50.83;;;;;;;;;;5011641;28;20038;-74
2021/11/22 10:15:32;;;;;;;65.57;48.40;;;;;;;;;;5011542;28;20117;-75
2021/11/22 10:17:59;;;;;;;63.70;48.22;;;;;;;;;;5008335;28;20030;-76
2021/11/22 10:20:27;;;;;;;61.05;48.35;;;;;;;;;;5011561;28;20037;-76
2021/11/22 10:23:00;;;;;;;50.92;39.80;;;;;;;;;;5011317;28;20018;-76
2021/11/22 10:25:32;;;;;;;37.65;28.75;;;;;;;;;;5010862;28;20053;-75
2021/11/22 10:28:18;;;;;;;33.65;25.48;;;;;;;;;;5011296;28;20045;-76
2021/11/22 10:30:46;;;;;;;46.17;34.25;;;;;;;;;;4993992;28;20081;-76
2021/11/22 10:33:13;;;;;;;51.38;38.30;;;;;;;;;;5010414;28;20033;-77
2021/11/22 10:35:40;;;;;;;52.90;38.45;;;;;;;;;;5011850;28;20026;-75
2021/11/22 10:38:10;;;;;;;54.20;42.45;;;;;;;;;;5010881;28;20030;-75
2021/11/22 10:40:38;;;;;;;60.92;46.03;;;;;;;;;;5011648;28;20026;-75
2021/11/22 10:43:05;;;;;;;59.40;45.33;;;;;;;;;;5011238;28;20534;-76
2021/11/22 10:45:38;;;;;;;57.00;43.88;;;;;;;;;;5011212;28;20096;-75
2021/11/22 10:48:14;;;;;;;56.17;42.45;;;;;;;;;;5011348;28;20037;-75
2021/11/22 10:50:49;;;;;;;61.63;47.05;;;;;;;;;;5011253;28;20053;-74
2021/11/22 10:53:15;;;;;;;;;;;;;;;;;;5011553;28;20060;-75
2021/11/22 10:55:47;;;;;;;54.08;42.55;;;;;;;;;;5011285;28;19905;-74
2021/11/22 10:58:32;;;;;;;70.75;54.10;;;;;;;;;;5007276;28;20038;-78
2021/11/22 11:00:58;;;;;;;73.68;54.60;;;;;;;;;;5015737;28;20072;-75
2021/11/22 11:03:28;;;;;;;92.47;68.47;;;;;;;;;;5030870;28;20049;-74
2021/11/22 11:05:57;;;;;;;90.18;66.25;;;;;;;;;;5030475;28;20033;-74
2021/11/22 11:08:25;;;;;;;82.32;62.53;;;;;;;;;;5029371;28;20029;-74
2021/11/22 11:11:07;;;;;;;74.93;57.83;;;;;;;;;;5014919;28;20061;-78
2021/11/22 11:13:47;;;;;;;79.95;58.47;;;;;;;;;;5003805;28;20030;-75
2021/11/22 11:16:14;;;;;;;79.25;57.65;;;;;;;;;;5014758;28;20030;-76
2021/11/22 11:18:40;;;;;;;73.78;55.88;;;;;;;;;;5015439;28;20026;-76
2021/11/22 11:21:06;;;;;;;65.72;50.30;;;;;;;;;;5014907;28;20437;-76
2021/11/22 11:23:32;;;;;;;65.68;52.30;;;;;;;;;;5014930;28;20030;-74
2021/11/22 11:26:00;;;;;;;63.90;47.55;;;;;;;;;;5034461;28;20040;-75
2021/11/22 11:28:27;;;;;;;49.50;39.38;;;;;;;;;;5033907;28;20041;-75
2021/11/22 11:30:53;;;;;;;50.53;34.88;;;;;;;;;;5034271;28;20124;-76
2021/11/22 11:33:19;;;;;;;43.03;32.65;;;;;;;;;;5013516;28;20161;-75
2021/11/22 11:35:47;;;;;;;41.05;32.95;;;;;;;;;;5015268;28;20493;-77
2021/11/22 11:38:13;;;;;;;41.78;30.80;;;;;;;;;;5023627;28;20026;-77
2021/11/22 11:40:42;;;;;;;50.40;37.08;;;;;;;;;;5029613;28;20376;-77
2021/11/22 11:43:11;;;;;;;39.50;30.05;;;;;;;;;;5025525;28;20026;-76
2021/11/22 11:45:37;;;;;;;40.50;31.70;;;;;;;;;;5023855;28;20021;-74
2021/11/22 11:48:13;;;;;;;36.97;28.30;;;;;;;;;;5021996;28;20131;-75
2021/11/22 11:50:43;;;;;;;37.70;28.50;;;;;;;;;;5023105;28;20041;-75
2021/11/22 11:53:12;;;;;;;37.33;27.70;;;;;;;;;;5015705;28;20038;-77
2021/11/22 11:55:38;;;;;;;45.72;31.48;;;;;;;;;;5008019;28;20033;-75
2021/11/22 11:58:25;;;;;;;72.18;46.25;;;;;;;;;;5014142;28;20021;-76
2021/11/22 12:00:56;;;;;;;38.33;29.08;;;;;;;;;;5021727;28;20021;-77
2021/11/22 12:03:24;;;;;;;45.33;34.30;;;;;;;;;;5021999;28;20036;-75
2021/11/22 12:05:53;;;;;;;53.60;39.40;;;;;;;;;;5024094;28;20017;-75
2021/11/22 12:08:21;;;;;;;47.20;37.35;;;;;;;;;;5024237;28;20076;-76
2021/11/22 12:10:47;;;;;;;45.38;33.80;;;;;;;;;;5020152;28;20771;-76
2021/11/22 12:13:16;;;;;;;37.35;28.40;;;;;;;;;;5017499;28;20451;-75
2021/11/22 12:15:42;;;;;;;36.78;27.67;;;;;;;;;;5024648;28;20079;-74
2021/11/22 12:18:26;;;;;;;31.45;24.90;;;;;;;;;;5021628;28;20018;-78
2021/11/22 12:20:53;;;;;;;37.00;25.88;;;;;;;;;;5016786;28;20033;-76
2021/11/22 12:23:21;;;;;;;33.97;26.40;;;;;;;;;;5014140;28;20081;-76
2021/11/22 12:25:48;;;;;;;144.70;93.97;;;;;;;;;;5004017;28;20452;-75
2021/11/22 12:31:11;;;;;;;60.67;47.67;;;;;;;;;;5024558;28;20051;-76
2021/11/22 12:33:45;;;;;;;46.53;35.40;;;;;;;;;;5013693;28;20048;-77
2021/11/22 12:36:11;;;;;;;37.78;26.80;;;;;;;;;;5019931;28;20030;-77
2021/11/22 12:38:37;;;;;;;30.58;24.17;;;;;;;;;;5022441;28;20089;-77
2021/11/22 12:41:07;;;;;;;28.33;21.98;;;;;;;;;;5021337;28;20527;-77
2021/11/22 12:43:37;;;;;;;30.15;22.40;;;;;;;;;;4994050;28;20041;-75
2021/11/22 12:46:07;;;;;;;25.33;19.42;;;;;;;;;;4994930;28;20058;-74
2021/11/22 12:48:36;;;;;;;25.30;19.35;;;;;;;;;;5005558;28;20030;-77
2021/11/22 12:51:06;;;;;;;37.08;27.98;;;;;;;;;;4997581;28;20046;-75
2021/11/22 12:53:33;;;;;;;31.75;22.38;;;;;;;;;;5009240;28;20106;-75
2021/11/22 12:55:59;;;;;;;31.40;22.33;;;;;;;;;;5014495;28;20026;-76
2021/11/22 12:58:28;;;;;;;30.88;24.45;;;;;;;;;;5022789;28;20030;-76
2021/11/22 13:00:56;;;;;;;34.35;25.85;;;;;;;;;;5012944;28;20145;-76
2021/11/22 13:03:24;;;;;;;26.95;20.75;;;;;;;;;;5018757;28;20022;-75
2021/11/22 13:05:54;;;;;;;33.25;25.50;;;;;;;;;;5027764;28;20084;-75
2021/11/22 13:08:20;;;;;;;32.10;25.13;;;;;;;;;;5016244;28;20036;-75
2021/11/22 13:11:00;;;;;;;40.35;28.35;;;;;;;;;;4994255;28;20054;-75
2021/11/22 13:16:14;;;;;;;29.52;22.55;;;;;;;;;;4994373;28;20042;-76
2021/11/22 13:18:46;;;;;;;27.75;21.35;;;;;;;;;;5004574;28;20030;-77
2021/11/22 13:21:14;;;;;;;29.55;20.25;;;;;;;;;;5012433;28;20117;-76
2021/11/22 13:23:41;;;;;;;31.50;21.58;;;;;;;;;;5013004;28;20377;-74
2021/11/22 13:26:26;;;;;;;33.03;22.65;;;;;;;;;;5000952;28;20030;-75
2021/11/22 13:28:55;;;;;;;32.45;25.13;;;;;;;;;;5013563;28;20029;-75
2021/11/22 13:31:23;;;;;;;34.47;25.25;;;;;;;;;;5013445;28;20421;-75
2021/11/22 13:33:50;;;;;;;43.70;30.75;;;;;;;;;;5013605;28;20667;-75
2021/11/22 13:36:18;;;;;;;47.13;31.95;;;;;;;;;;5015510;28;20117;-75
2021/11/22 13:38:44;;;;;;;52.95;35.22;;;;;;;;;;5019663;28;20064;-75
2021/11/22 13:41:10;;;;;;;46.78;31.00;;;;;;;;;;5033182;28;20028;-73
2021/11/22 13:43:36;;;;;;;36.58;26.58;;;;;;;;;;5032830;28;20488;-77
2021/11/22 13:46:04;;;;;;;39.85;29.92;;;;;;;;;;5032960;28;20060;-74
2021/11/22 13:48:48;;;;;;;50.60;37.58;;;;;;;;;;5015161;28;20485;-76
2021/11/22 13:51:19;;;;;;;67.18;50.80;;;;;;;;;;5003912;28;20125;-77
2021/11/22 13:53:48;;;;;;;61.78;44.08;;;;;;;;;;5007511;28;20113;-75
2021/11/22 13:56:33;;;;;;;78.88;53.92;;;;;;;;;;5021194;28;20030;-75
2021/11/22 13:59:03;;;;;;;67.90;45.58;;;;;;;;;;5015545;28;20038;-76
2021/11/22 14:01:45;;;;;;;62.00;46.95;;;;;;;;;;5012888;28;20109;-77
2021/11/22 14:04:12;;;;;;;56.88;43.70;;;;;;;;;;5012614;28;20037;-74
2021/11/22 14:06:39;;;;;;;42.53;32.78;;;;;;;;;;5013135;28;20022;-76
2021/11/22 14:09:05;;;;;;;50.33;38.05;;;;;;;;;;5011879;28;20455;-75
2021/11/22 14:11:31;;;;;;;48.58;35.42;;;;;;;;;;5012544;28;20054;-77
2021/11/22 14:14:00;;;;;;;48.50;37.47;;;;;;;;;;5013002;28;20092;-77
2021/11/22 14:16:27;;;;;;;48.22;35.42;;;;;;;;;;5013075;28;20029;-76
2021/11/22 14:18:54;;;;;;;50.05;31.80;;;;;;;;;;4995061;28;20041;-76
2021/11/22 14:21:31;;;;;;;50.78;33.63;;;;;;;;;;4993648;28;20085;-76
2021/11/22 14:24:07;;;;;;;47.88;32.03;;;;;;;;;;4992832;28;20030;-75
2021/11/22 14:26:35;;;;;;;47.90;32.38;;;;;;;;;;5004158;28;20029;-74